Pineville, MO

12:11 AM CDT on October 01, 2014 (GMT -0500)
NW Arkansas Airport | Change Station
CLOSE
Current Station
Airport
Location: NW Arkansas Airport,
Elevation: 392 m
Nearby Weather Stations

Elev 392 m 36.28 °N, 94.31 °W | Updated 18 minutes ago

Clear
Clear
17 °C
Feels Like 17 °C
N
6
Wind Variable Wind from ENE

Today
High -- | Low -- °C
--% Chance of Precip.
Yesterday
High -- | Low -- °C
Precip. -- mm
7:12 AM 7:00 PM
Waxing Crescent, 43% visible
Pressure 1010 hPa
Visibility 14.5 kilometers
Clouds Clear
Dew Point 15 °C
Humidity 90%
Rainfall 0.0 mm
Snow Depth Not available.
UV 0 out of 12
Pollen 5.20 out of 12
Air Quality Not available.
Flu Activity Not available.
METAR KXNA 010453Z AUTO 07003KT 9SM CLR 17/15 A2986 RMK AO2 SLP100 T01670150

More Conditions Fewer Conditions

Pressure 1010 hPa
Visibility 14.5 kilometers
Clouds Clear
Dew Point 15 °C
Humidity 90%
Rainfall 0.0 mm
Snow Depth Not available.
UV 0 out of 12
Pollen 5.20 out of 12
Air Quality Not available.
Flu Activity Not available.
METAR KXNA 010453Z AUTO 07003KT 9SM CLR 17/15 A2986 RMK AO2 SLP100 T01670150

More Conditions Fewer Conditions

10-Day Weather Forecast

Almanac

Astronomy

Oct. 01, 2014 Rise Set
Actual Time 7:12 AM CDT 7:00 PM CDT
Civil Twilight 6:46 AM CDT 7:26 PM CDT
Nautical Twilight 6:17 AM CDT 7:56 PM CDT
Astronomical Twilight 5:46 AM CDT 8:26 PM CDT
Moon 2:07 PM CDT No Moon Set
Length of Visible Light 12h 39m
Length of Day
11h 48m
Tomorrow will be 2m 18s shorter.
Waxing Crescent, 43% of the Moon is Illuminated
Today
Waxing Crescent
Oct 1
First Quarter
Oct 8
Full
Oct 15
Last Quarter
Oct 23
New

Today's Extremes

State Highs State Lows

Community

WunderPhotos

Upload Photos

1,757,851 photos uploaded!

Nearby

Snow Depth

Station Depth Elevation
No new snow has been reported.

Earthquake Activity

City Distance Mag. Time & Date
Parsons, Kansas 126 kilometers 3.0 7:33 PM CDT
2014-09-30
Minimum magnitude displayed is 2.5.

Coastal Water Temperatures

Place Temperature
No Stations Reporting

Nearby Weather Stations